sensor_id;sensor_type;location;lat;lon;timestamp;pressure;altitude;pressure_sealevel;temperature;humidity
49473;BME280;67434;50.956;6.918;2023-04-15T00:02:18;100251.59;;;6.97;65.22
49473;BME280;67434;50.956;6.918;2023-04-15T00:05:04;100250.63;;;6.86;65.36
49473;BME280;67434;50.956;6.918;2023-04-15T00:07:50;100246.97;;;6.75;65.82
49473;BME280;67434;50.956;6.918;2023-04-15T00:10:35;100249.44;;;6.65;66.21
49473;BME280;67434;50.956;6.918;2023-04-15T00:13:21;100251.47;;;6.58;66.74
49473;BME280;67434;50.956;6.918;2023-04-15T00:16:07;100255.78;;;6.59;65.71
49473;BME280;67434;50.956;6.918;2023-04-15T00:18:53;100248.63;;;6.65;66.46
49473;BME280;67434;50.956;6.918;2023-04-15T00:21:38;100242.13;;;6.61;66.92
49473;BME280;67434;50.956;6.918;2023-04-15T00:24:24;100243.66;;;6.56;66.85
49473;BME280;67434;50.956;6.918;2023-04-15T00:27:10;100248.16;;;6.51;66.79
49473;BME280;67434;50.956;6.918;2023-04-15T00:29:55;100251.06;;;6.49;67.30
49473;BME280;67434;50.956;6.918;2023-04-15T00:32:41;100246.50;;;6.50;67.30
49473;BME280;67434;50.956;6.918;2023-04-15T00:35:27;100251.31;;;6.48;67.69
49473;BME280;67434;50.956;6.918;2023-04-15T00:38:12;100256.34;;;6.44;68.21
49473;BME280;67434;50.956;6.918;2023-04-15T00:40:58;100254.31;;;6.51;68.10
49473;BME280;67434;50.956;6.918;2023-04-15T00:43:44;100250.75;;;6.46;68.55
49473;BME280;67434;50.956;6.918;2023-04-15T00:46:30;100257.75;;;6.47;68.24
49473;BME280;67434;50.956;6.918;2023-04-15T00:49:16;100250.66;;;6.41;68.73
49473;BME280;67434;50.956;6.918;2023-04-15T00:52:04;100255.94;;;6.36;68.84
49473;BME280;67434;50.956;6.918;2023-04-15T00:54:50;100254.19;;;6.30;69.64
49473;BME280;67434;50.956;6.918;2023-04-15T00:57:36;100251.88;;;6.33;68.91
49473;BME280;67434;50.956;6.918;2023-04-15T01:00:22;100254.31;;;6.35;69.46
49473;BME280;67434;50.956;6.918;2023-04-15T01:03:08;100250.44;;;6.31;69.34
49473;BME280;67434;50.956;6.918;2023-04-15T01:05:54;100253.25;;;6.36;69.23
49473;BME280;67434;50.956;6.918;2023-04-15T01:08:43;100252.31;;;6.30;68.96
49473;BME280;67434;50.956;6.918;2023-04-15T01:11:29;100255.97;;;6.24;69.74
49473;BME280;67434;50.956;6.918;2023-04-15T01:14:17;100249.94;;;6.17;70.01
49473;BME280;67434;50.956;6.918;2023-04-15T01:17:03;100249.69;;;6.18;69.59
49473;BME280;67434;50.956;6.918;2023-04-15T01:19:50;100248.63;;;6.19;69.91
49473;BME280;67434;50.956;6.918;2023-04-15T01:22:36;100245.69;;;6.33;69.33
49473;BME280;67434;50.956;6.918;2023-04-15T01:25:31;100245.69;;;6.33;69.17
49473;BME280;67434;50.956;6.918;2023-04-15T01:28:19;100246.50;;;6.33;69.38
49473;BME280;67434;50.956;6.918;2023-04-15T01:31:11;100251.06;;;6.33;69.30
49473;BME280;67434;50.956;6.918;2023-04-15T01:33:58;100256.19;;;6.22;69.59
49473;BME280;67434;50.956;6.918;2023-04-15T01:36:44;100247.25;;;6.17;69.75
49473;BME280;67434;50.956;6.918;2023-04-15T01:39:30;100247.41;;;6.10;69.82
49473;BME280;67434;50.956;6.918;2023-04-15T01:42:16;100246.50;;;6.05;69.82
49473;BME280;67434;50.956;6.918;2023-04-15T01:45:02;100247.91;;;5.95;69.89
49473;BME280;67434;50.956;6.918;2023-04-15T01:47:48;100244.16;;;5.85;70.05
49473;BME280;67434;50.956;6.918;2023-04-15T01:50:33;100245.47;;;5.82;71.09
49473;BME280;67434;50.956;6.918;2023-04-15T01:53:21;100241.97;;;5.82;70.65
49473;BME280;67434;50.956;6.918;2023-04-15T01:56:06;100242.91;;;5.76;70.75
49473;BME280;67434;50.956;6.918;2023-04-15T01:58:52;100242.91;;;5.76;70.87
49473;BME280;67434;50.956;6.918;2023-04-15T02:01:38;100241.75;;;5.72;70.92
49473;BME280;67434;50.956;6.918;2023-04-15T02:04:24;100236.31;;;5.67;70.95
49473;BME280;67434;50.956;6.918;2023-04-15T02:07:09;100235.84;;;5.58;71.54
49473;BME280;67434;50.956;6.918;2023-04-15T02:09:55;100238.31;;;5.59;71.79
49473;BME280;67434;50.956;6.918;2023-04-15T02:12:41;100238.88;;;5.61;71.81
49473;BME280;67434;50.956;6.918;2023-04-15T02:15:26;100242.63;;;5.60;71.41
49473;BME280;67434;50.956;6.918;2023-04-15T02:18:12;100250.41;;;5.62;71.65
49473;BME280;67434;50.956;6.918;2023-04-15T02:20:58;100244.25;;;5.61;71.48
49473;BME280;67434;50.956;6.918;2023-04-15T02:23:43;100246.78;;;5.56;72.34
49473;BME280;67434;50.956;6.918;2023-04-15T02:26:31;100249.59;;;5.50;72.40
49473;BME280;67434;50.956;6.918;2023-04-15T02:29:17;100253.09;;;5.50;72.58
49473;BME280;67434;50.956;6.918;2023-04-15T02:32:03;100256.13;;;5.54;72.24
49473;BME280;67434;50.956;6.918;2023-04-15T02:34:49;100249.84;;;5.48;72.43
49473;BME280;67434;50.956;6.918;2023-04-15T02:37:36;100249.50;;;5.45;73.06
49473;BME280;67434;50.956;6.918;2023-04-15T02:40:27;100256.25;;;5.47;72.88
49473;BME280;67434;50.956;6.918;2023-04-15T02:43:13;100258.81;;;5.54;72.01
49473;BME280;67434;50.956;6.918;2023-04-15T02:45:58;100256.94;;;5.54;72.43
49473;BME280;67434;50.956;6.918;2023-04-15T02:48:44;100259.03;;;5.52;72.72
49473;BME280;67434;50.956;6.918;2023-04-15T02:51:30;100272.34;;;5.47;72.91
49473;BME280;67434;50.956;6.918;2023-04-15T02:54:20;100272.34;;;5.59;72.03
49473;BME280;67434;50.956;6.918;2023-04-15T02:57:07;100270.72;;;5.58;71.66
49473;BME280;67434;50.956;6.918;2023-04-15T02:59:52;100274.31;;;5.52;72.39
49473;BME280;67434;50.956;6.918;2023-04-15T03:02:38;100272.09;;;5.49;72.07
49473;BME280;67434;50.956;6.918;2023-04-15T03:05:25;100277.91;;;5.57;72.11
49473;BME280;67434;50.956;6.918;2023-04-15T03:08:11;100277.56;;;5.54;72.40
49473;BME280;67434;50.956;6.918;2023-04-15T03:10:57;100278.03;;;5.51;72.52
49473;BME280;67434;50.956;6.918;2023-04-15T03:13:45;100278.63;;;5.41;72.14
49473;BME280;67434;50.956;6.918;2023-04-15T03:16:30;100279.91;;;5.39;72.99
49473;BME280;67434;50.956;6.918;2023-04-15T03:19:16;100270.38;;;5.31;72.73
49473;BME280;67434;50.956;6.918;2023-04-15T03:22:01;100273.28;;;5.29;73.59
49473;BME280;67434;50.956;6.918;2023-04-15T03:24:47;100273.41;;;5.23;73.81
49473;BME280;67434;50.956;6.918;2023-04-15T03:27:33;100274.69;;;5.20;74.08
49473;BME280;67434;50.956;6.918;2023-04-15T03:30:18;100271.78;;;5.22;73.70
49473;BME280;67434;50.956;6.918;2023-04-15T03:33:04;100289.22;;;5.13;74.37
49473;BME280;67434;50.956;6.918;2023-04-15T03:35:50;100285.97;;;5.11;74.11
49473;BME280;67434;50.956;6.918;2023-04-15T03:38:36;100291.44;;;5.04;74.61
49473;BME280;67434;50.956;6.918;2023-04-15T03:41:22;100303.88;;;4.98;75.43
49473;BME280;67434;50.956;6.918;2023-04-15T03:44:07;100290.84;;;4.90;75.26
49473;BME280;67434;50.956;6.918;2023-04-15T03:46:53;100294.81;;;4.99;75.17
49473;BME280;67434;50.956;6.918;2023-04-15T03:49:39;100298.53;;;4.98;75.33
49473;BME280;67434;50.956;6.918;2023-04-15T03:52:24;100304.81;;;4.92;75.65
49473;BME280;67434;50.956;6.918;2023-04-15T03:55:10;100309.22;;;4.87;75.46
49473;BME280;67434;50.956;6.918;2023-04-15T03:57:56;100305.34;;;4.83;76.09
49473;BME280;67434;50.956;6.918;2023-04-15T04:00:41;100311.41;;;4.78;76.52
49473;BME280;67434;50.956;6.918;2023-04-15T04:03:27;100310.47;;;4.72;75.93
49473;BME280;67434;50.956;6.918;2023-04-15T04:06:13;100310.09;;;4.69;76.52
49473;BME280;67434;50.956;6.918;2023-04-15T04:08:59;100318.59;;;4.66;76.29
49473;BME280;67434;50.956;6.918;2023-04-15T04:11:45;100313.81;;;4.68;77.13
49473;BME280;67434;50.956;6.918;2023-04-15T04:14:31;100305.22;;;4.66;77.13
49473;BME280;67434;50.956;6.918;2023-04-15T04:17:17;100307.56;;;4.74;75.82
49473;BME280;67434;50.956;6.918;2023-04-15T04:20:02;100309.88;;;4.70;75.96
49473;BME280;67434;50.956;6.918;2023-04-15T04:22:48;100302.53;;;4.66;75.83
49473;BME280;67434;50.956;6.918;2023-04-15T04:25:34;100304.75;;;4.69;75.92
49473;BME280;67434;50.956;6.918;2023-04-15T04:28:20;100311.25;;;4.61;75.98
49473;BME280;67434;50.956;6.918;2023-04-15T04:31:07;100309.50;;;4.55;76.46
49473;BME280;67434;50.956;6.918;2023-04-15T04:33:54;100316.69;;;4.55;76.12
49473;BME280;67434;50.956;6.918;2023-04-15T04:36:40;100327.78;;;4.70;76.11
49473;BME280;67434;50.956;6.918;2023-04-15T04:39:25;100337.28;;;4.84;75.73
49473;BME280;67434;50.956;6.918;2023-04-15T04:42:11;100335.50;;;4.78;75.93
49473;BME280;67434;50.956;6.918;2023-04-15T04:44:57;100337.34;;;4.66;76.00
49473;BME280;67434;50.956;6.918;2023-04-15T04:47:42;100334.38;;;4.56;76.62
49473;BME280;67434;50.956;6.918;2023-04-15T04:50:28;100334.53;;;4.61;75.62
49473;BME280;67434;50.956;6.918;2023-04-15T04:53:13;100340.69;;;4.61;76.42
49473;BME280;67434;50.956;6.918;2023-04-15T04:55:59;100334.88;;;4.64;76.68
49473;BME280;67434;50.956;6.918;2023-04-15T04:58:45;100349.41;;;4.87;75.90
49473;BME280;67434;50.956;6.918;2023-04-15T05:01:31;100349.25;;;4.82;76.19
49473;BME280;67434;50.956;6.918;2023-04-15T05:04:16;100351.44;;;4.73;75.69
49473;BME280;67434;50.956;6.918;2023-04-15T05:07:02;100343.88;;;4.70;76.32
49473;BME280;67434;50.956;6.918;2023-04-15T05:09:48;100350.25;;;4.69;76.33
49473;BME280;67434;50.956;6.918;2023-04-15T05:12:34;100346.53;;;4.70;76.54
49473;BME280;67434;50.956;6.918;2023-04-15T05:15:20;100352.47;;;4.72;76.48
49473;BME280;67434;50.956;6.918;2023-04-15T05:18:06;100347.25;;;4.77;76.30
49473;BME280;67434;50.956;6.918;2023-04-15T05:20:51;100353.56;;;4.83;76.21
49473;BME280;67434;50.956;6.918;2023-04-15T05:23:37;100351.16;;;4.93;76.28
49473;BME280;67434;50.956;6.918;2023-04-15T05:26:23;100347.56;;;5.11;75.75
49473;BME280;67434;50.956;6.918;2023-04-15T05:29:08;100360.78;;;5.24;75.04
49473;BME280;67434;50.956;6.918;2023-04-15T05:31:54;100359.53;;;5.61;74.16
49473;BME280;67434;50.956;6.918;2023-04-15T05:34:40;100369.78;;;5.76;73.89
49473;BME280;67434;50.956;6.918;2023-04-15T05:37:26;100377.47;;;5.84;73.81
49473;BME280;67434;50.956;6.918;2023-04-15T05:40:11;100382.59;;;5.86;73.74
49473;BME280;67434;50.956;6.918;2023-04-15T05:42:57;100386.72;;;6.00;73.32
49473;BME280;67434;50.956;6.918;2023-04-15T05:45:42;100382.84;;;6.08;72.99
49473;BME280;67434;50.956;6.918;2023-04-15T05:48:28;100396.47;;;6.18;72.59
49473;BME280;67434;50.956;6.918;2023-04-15T05:51:14;100395.88;;;6.27;72.57
49473;BME280;67434;50.956;6.918;2023-04-15T05:53:59;100407.09;;;6.36;72.21
49473;BME280;67434;50.956;6.918;2023-04-15T05:56:45;100401.69;;;6.48;71.74
49473;BME280;67434;50.956;6.918;2023-04-15T05:59:31;100393.19;;;6.68;70.61
49473;BME280;67434;50.956;6.918;2023-04-15T06:02:17;100406.44;;;6.86;70.62
49473;BME280;67434;50.956;6.918;2023-04-15T06:05:03;100405.78;;;7.07;69.51
49473;BME280;67434;50.956;6.918;2023-04-15T06:07:49;100412.94;;;7.18;68.22
49473;BME280;67434;50.956;6.918;2023-04-15T06:10:36;100415.66;;;7.35;68.11
49473;BME280;67434;50.956;6.918;2023-04-15T06:13:22;100415.34;;;7.48;67.98
49473;BME280;67434;50.956;6.918;2023-04-15T06:16:08;100418.84;;;7.66;67.34
49473;BME280;67434;50.956;6.918;2023-04-15T06:18:54;100416.56;;;7.74;66.18
49473;BME280;67434;50.956;6.918;2023-04-15T06:21:39;100421.06;;;7.86;65.92
49473;BME280;67434;50.956;6.918;2023-04-15T06:24:25;100415.94;;;8.06;65.32
49473;BME280;67434;50.956;6.918;2023-04-15T06:27:11;100423.09;;;8.17;64.43
49473;BME280;67434;50.956;6.918;2023-04-15T06:29:56;100422.44;;;8.27;64.17
49473;BME280;67434;50.956;6.918;2023-04-15T06:32:42;100425.16;;;8.49;63.55
49473;BME280;67434;50.956;6.918;2023-04-15T06:35:28;100429.78;;;8.53;64.08
49473;BME280;67434;50.956;6.918;2023-04-15T06:38:13;100431.94;;;8.73;63.31
49473;BME280;67434;50.956;6.918;2023-04-15T06:40:59;100434.28;;;8.91;63.03
49473;BME280;67434;50.956;6.918;2023-04-15T06:43:45;100430.13;;;9.05;61.96
49473;BME280;67434;50.956;6.918;2023-04-15T06:46:30;100435.44;;;8.95;61.03
49473;BME280;67434;50.956;6.918;2023-04-15T06:49:16;100442.69;;;8.95;62.13
49473;BME280;67434;50.956;6.918;2023-04-15T06:52:02;100450.56;;;9.28;60.06
49473;BME280;67434;50.956;6.918;2023-04-15T06:54:49;100445.38;;;9.49;59.74
49473;BME280;67434;50.956;6.918;2023-04-15T06:57:35;100446.50;;;9.26;59.79
49473;BME280;67434;50.956;6.918;2023-04-15T07:00:20;100452.41;;;9.23;59.97
49473;BME280;67434;50.956;6.918;2023-04-15T07:03:06;100455.53;;;9.36;60.37
49473;BME280;67434;50.956;6.918;2023-04-15T07:05:55;100453.69;;;9.42;59.88
49473;BME280;67434;50.956;6.918;2023-04-15T07:08:41;100461.13;;;9.62;59.54
49473;BME280;67434;50.956;6.918;2023-04-15T07:11:26;100459.69;;;9.81;59.63
49473;BME280;67434;50.956;6.918;2023-04-15T07:14:12;100464.16;;;10.02;58.93
49473;BME280;67434;50.956;6.918;2023-04-15T07:16:58;100470.84;;;10.27;58.97
49473;BME280;67434;50.956;6.918;2023-04-15T07:19:43;100470.34;;;10.40;58.33
49473;BME280;67434;50.956;6.918;2023-04-15T07:22:29;100473.72;;;10.57;58.31
49473;BME280;67434;50.956;6.918;2023-04-15T07:25:14;100475.13;;;10.70;57.47
49473;BME280;67434;50.956;6.918;2023-04-15T07:28:00;100476.84;;;11.02;57.25
49473;BME280;67434;50.956;6.918;2023-04-15T07:30:47;100472.06;;;11.24;56.68
49473;BME280;67434;50.956;6.918;2023-04-15T07:33:33;100476.66;;;11.34;56.30
49473;BME280;67434;50.956;6.918;2023-04-15T07:36:18;100485.59;;;11.39;56.77
49473;BME280;67434;50.956;6.918;2023-04-15T07:39:05;100479.97;;;11.66;55.57
49473;BME280;67434;50.956;6.918;2023-04-15T07:41:50;100490.81;;;11.86;55.00
49473;BME280;67434;50.956;6.918;2023-04-15T07:44:36;100491.09;;;12.00;54.72
49473;BME280;67434;50.956;6.918;2023-04-15T07:47:22;100488.13;;;12.07;54.54
49473;BME280;67434;50.956;6.918;2023-04-15T07:50:08;100486.50;;;11.80;55.53
49473;BME280;67434;50.956;6.918;2023-04-15T07:52:55;100494.06;;;11.83;55.74
49473;BME280;67434;50.956;6.918;2023-04-15T07:55:41;100496.00;;;11.93;55.35
49473;BME280;67434;50.956;6.918;2023-04-15T07:58:27;100494.34;;;11.97;54.85
49473;BME280;67434;50.956;6.918;2023-04-15T08:01:13;100505.72;;;12.30;54.65
49473;BME280;67434;50.956;6.918;2023-04-15T08:03:58;100500.25;;;12.45;54.08
49473;BME280;67434;50.956;6.918;2023-04-15T08:06:44;100499.59;;;12.78;53.69
49473;BME280;67434;50.956;6.918;2023-04-15T08:09:32;100510.25;;;12.55;53.48
49473;BME280;67434;50.956;6.918;2023-04-15T08:12:17;100506.63;;;12.84;53.25
49473;BME280;67434;50.956;6.918;2023-04-15T08:15:03;100504.28;;;13.27;52.11
49473;BME280;67434;50.956;6.918;2023-04-15T08:17:49;100501.34;;;13.19;50.62
49473;BME280;67434;50.956;6.918;2023-04-15T08:20:35;100511.41;;;13.18;50.32
49473;BME280;67434;50.956;6.918;2023-04-15T08:23:22;100514.50;;;12.86;49.01
49473;BME280;67434;50.956;6.918;2023-04-15T08:26:07;100520.34;;;13.13;48.13
49473;BME280;67434;50.956;6.918;2023-04-15T08:28:53;100520.91;;;13.10;48.18
49473;BME280;67434;50.956;6.918;2023-04-15T08:31:39;100516.28;;;13.21;47.47
49473;BME280;67434;50.956;6.918;2023-04-15T08:34:25;100521.66;;;13.75;46.30
49473;BME280;67434;50.956;6.918;2023-04-15T08:37:10;100526.50;;;13.39;45.96
49473;BME280;67434;50.956;6.918;2023-04-15T08:39:56;100538.88;;;13.01;46.05
49473;BME280;67434;50.956;6.918;2023-04-15T08:42:46;100532.84;;;13.09;45.91
49473;BME280;67434;50.956;6.918;2023-04-15T08:45:34;100542.66;;;13.00;46.66
49473;BME280;67434;50.956;6.918;2023-04-15T08:48:23;100543.19;;;12.97;47.13
49473;BME280;67434;50.956;6.918;2023-04-15T08:51:10;100546.19;;;13.01;47.01
49473;BME280;67434;50.956;6.918;2023-04-15T08:53:55;100554.44;;;12.70;47.36
49473;BME280;67434;50.956;6.918;2023-04-15T08:56:41;100557.94;;;12.76;47.86
49473;BME280;67434;50.956;6.918;2023-04-15T08:59:29;100549.69;;;13.11;46.89
49473;BME280;67434;50.956;6.918;2023-04-15T09:02:15;100550.34;;;12.73;46.79
49473;BME280;67434;50.956;6.918;2023-04-15T09:05:01;100561.75;;;12.70;47.44
49473;BME280;67434;50.956;6.918;2023-04-15T09:07:50;100562.81;;;12.79;47.60
49473;BME280;67434;50.956;6.918;2023-04-15T09:10:36;100574.75;;;12.73;47.77
49473;BME280;67434;50.956;6.918;2023-04-15T09:13:22;100575.28;;;12.80;47.07
49473;BME280;67434;50.956;6.918;2023-04-15T09:16:07;100570.66;;;12.80;47.21
49473;BME280;67434;50.956;6.918;2023-04-15T09:18:55;100570.66;;;12.80;47.13
49473;BME280;67434;50.956;6.918;2023-04-15T09:21:41;100584.22;;;12.80;47.43
49473;BME280;67434;50.956;6.918;2023-04-15T09:24:38;100580.75;;;12.55;48.18
49473;BME280;67434;50.956;6.918;2023-04-15T09:27:24;100584.81;;;12.52;49.09
49473;BME280;67434;50.956;6.918;2023-04-15T09:30:10;100582.94;;;12.47;48.10
49473;BME280;67434;50.956;6.918;2023-04-15T09:33:01;100594.31;;;12.55;48.28
49473;BME280;67434;50.956;6.918;2023-04-15T09:36:03;100597.00;;;12.75;48.22
49473;BME280;67434;50.956;6.918;2023-04-15T09:38:57;100592.13;;;12.67;48.50
49473;BME280;67434;50.956;6.918;2023-04-15T09:41:43;100594.84;;;12.67;48.47
49473;BME280;67434;50.956;6.918;2023-04-15T09:44:29;100602.97;;;12.67;48.94
49473;BME280;67434;50.956;6.918;2023-04-15T09:47:30;100605.88;;;13.06;48.91
49473;BME280;67434;50.956;6.918;2023-04-15T09:50:17;100603.38;;;13.25;48.03
49473;BME280;67434;50.956;6.918;2023-04-15T09:53:03;100611.03;;;13.02;48.74
49473;BME280;67434;50.956;6.918;2023-04-15T09:55:54;100596.22;;;13.49;48.22
49473;BME280;67434;50.956;6.918;2023-04-15T09:58:40;100610.63;;;13.50;47.55
49473;BME280;67434;50.956;6.918;2023-04-15T10:01:27;100620.72;;;13.29;48.04
49473;BME280;67434;50.956;6.918;2023-04-15T10:04:14;100620.53;;;13.00;49.25
49473;BME280;67434;50.956;6.918;2023-04-15T10:07:02;100618.97;;;12.58;49.77
49473;BME280;67434;50.956;6.918;2023-04-15T10:09:48;100618.41;;;12.61;50.62
49473;BME280;67434;50.956;6.918;2023-04-15T10:12:36;100622.44;;;12.89;49.30
49473;BME280;67434;50.956;6.918;2023-04-15T10:15:23;100637.66;;;12.80;50.17
49473;BME280;67434;50.956;6.918;2023-04-15T10:18:10;100631.34;;;13.20;49.90
49473;BME280;67434;50.956;6.918;2023-04-15T10:21:00;100634.63;;;13.07;50.95
49473;BME280;67434;50.956;6.918;2023-04-15T10:23:46;100635.91;;;13.35;50.62
49473;BME280;67434;50.956;6.918;2023-04-15T10:26:32;100644.66;;;13.22;50.65
49473;BME280;67434;50.956;6.918;2023-04-15T10:29:18;100645.53;;;12.81;51.16
49473;BME280;67434;50.956;6.918;2023-04-15T10:32:04;100634.97;;;12.75;51.93
49473;BME280;67434;50.956;6.918;2023-04-15T10:34:51;100646.38;;;12.72;51.69
49473;BME280;67434;50.956;6.918;2023-04-15T10:37:37;100647.94;;;12.98;51.96
49473;BME280;67434;50.956;6.918;2023-04-15T10:40:31;100634.59;;;13.22;51.16
49473;BME280;67434;50.956;6.918;2023-04-15T10:43:35;100663.72;;;12.81;52.12
49473;BME280;67434;50.956;6.918;2023-04-15T10:46:28;100660.97;;;12.86;51.71
49473;BME280;67434;50.956;6.918;2023-04-15T10:49:24;100649.84;;;12.93;51.65
49473;BME280;67434;50.956;6.918;2023-04-15T10:52:10;100662.81;;;13.31;50.51
49473;BME280;67434;50.956;6.918;2023-04-15T10:55:17;100651.38;;;13.34;50.22
49473;BME280;67434;50.956;6.918;2023-04-15T10:58:03;100655.06;;;14.18;49.01
49473;BME280;67434;50.956;6.918;2023-04-15T11:00:51;100657.91;;;13.93;48.71
49473;BME280;67434;50.956;6.918;2023-04-15T11:03:39;100649.88;;;13.72;48.53
49473;BME280;67434;50.956;6.918;2023-04-15T11:06:43;100651.00;;;13.61;48.80
49473;BME280;67434;50.956;6.918;2023-04-15T11:09:31;100658.63;;;13.59;49.44
49473;BME280;67434;50.956;6.918;2023-04-15T11:12:18;100659.91;;;13.77;49.48
49473;BME280;67434;50.956;6.918;2023-04-15T11:15:30;100653.78;;;14.00;49.16
49473;BME280;67434;50.956;6.918;2023-04-15T11:18:22;100651.31;;;14.04;49.42
49473;BME280;67434;50.956;6.918;2023-04-15T11:21:08;100664.38;;;14.41;47.25
49473;BME280;67434;50.956;6.918;2023-04-15T11:23:54;100665.22;;;14.36;47.81
49473;BME280;67434;50.956;6.918;2023-04-15T11:26:39;100669.75;;;14.12;48.68
49473;BME280;67434;50.956;6.918;2023-04-15T11:29:30;100663.19;;;13.69;49.66
49473;BME280;67434;50.956;6.918;2023-04-15T11:32:16;100682.00;;;13.55;50.69
49473;BME280;67434;50.956;6.918;2023-04-15T11:35:02;100687.78;;;13.98;49.82
49473;BME280;67434;50.956;6.918;2023-04-15T11:37:48;100675.84;;;13.94;50.11
49473;BME280;67434;50.956;6.918;2023-04-15T11:40:34;100711.38;;;13.43;50.80
49473;BME280;67434;50.956;6.918;2023-04-15T11:43:21;100690.47;;;13.49;51.23
49473;BME280;67434;50.956;6.918;2023-04-15T11:46:08;100704.63;;;13.40;51.50
49473;BME280;67434;50.956;6.918;2023-04-15T11:48:54;100704.34;;;13.17;52.28
49473;BME280;67434;50.956;6.918;2023-04-15T11:51:40;100701.09;;;13.40;51.98
49473;BME280;67434;50.956;6.918;2023-04-15T11:54:26;100712.44;;;13.52;52.26
49473;BME280;67434;50.956;6.918;2023-04-15T11:57:12;100716.84;;;13.28;52.09
49473;BME280;67434;50.956;6.918;2023-04-15T12:00:00;100730.97;;;12.99;53.21
49473;BME280;67434;50.956;6.918;2023-04-15T12:02:46;100723.94;;;12.83;54.07
49473;BME280;67434;50.956;6.918;2023-04-15T12:05:33;100726.09;;;12.76;54.74
49473;BME280;67434;50.956;6.918;2023-04-15T12:08:18;100729.63;;;12.81;54.66
49473;BME280;67434;50.956;6.918;2023-04-15T12:11:04;100730.44;;;12.77;54.67
49473;BME280;67434;50.956;6.918;2023-04-15T12:13:53;100736.66;;;12.98;54.40
49473;BME280;67434;50.956;6.918;2023-04-15T12:16:42;100739.09;;;12.89;54.40
49473;BME280;67434;50.956;6.918;2023-04-15T12:19:40;100747.53;;;12.82;54.66
49473;BME280;67434;50.956;6.918;2023-04-15T12:22:36;100749.41;;;12.46;56.23
49473;BME280;67434;50.956;6.918;2023-04-15T12:25:33;100749.34;;;12.26;57.18
49473;BME280;67434;50.956;6.918;2023-04-15T12:28:18;100761.84;;;12.42;57.01
49473;BME280;67434;50.956;6.918;2023-04-15T12:31:11;100767.25;;;12.27;57.07
49473;BME280;67434;50.956;6.918;2023-04-15T12:33:59;100769.53;;;11.88;57.51
49473;BME280;67434;50.956;6.918;2023-04-15T12:36:45;100759.56;;;11.99;57.58
49473;BME280;67434;50.956;6.918;2023-04-15T12:39:34;100775.31;;;12.07;57.34
49473;BME280;67434;50.956;6.918;2023-04-15T12:42:20;100776.75;;;12.30;56.92
49473;BME280;67434;50.956;6.918;2023-04-15T12:45:07;100784.63;;;12.36;56.62
49473;BME280;67434;50.956;6.918;2023-04-15T12:47:52;100790.59;;;12.33;57.37
49473;BME280;67434;50.956;6.918;2023-04-15T12:50:38;100787.84;;;12.28;57.72
49473;BME280;67434;50.956;6.918;2023-04-15T12:53:24;100795.94;;;12.18;58.07
49473;BME280;67434;50.956;6.918;2023-04-15T12:56:10;100805.28;;;11.85;59.32
49473;BME280;67434;50.956;6.918;2023-04-15T12:58:56;100813.47;;;11.53;60.61
49473;BME280;67434;50.956;6.918;2023-04-15T13:01:42;100818.53;;;11.44;61.14
49473;BME280;67434;50.956;6.918;2023-04-15T13:04:28;100829.09;;;11.46;61.07
49473;BME280;67434;50.956;6.918;2023-04-15T13:07:15;100829.03;;;11.36;61.60
49473;BME280;67434;50.956;6.918;2023-04-15T13:10:00;100828.47;;;11.34;61.41
49473;BME280;67434;50.956;6.918;2023-04-15T13:12:48;100832.50;;;11.26;61.86
49473;BME280;67434;50.956;6.918;2023-04-15T13:15:34;100826.03;;;11.32;61.67
49473;BME280;67434;50.956;6.918;2023-04-15T13:18:21;100839.63;;;11.42;61.67
49473;BME280;67434;50.956;6.918;2023-04-15T13:21:08;100837.09;;;11.25;61.94
49473;BME280;67434;50.956;6.918;2023-04-15T13:23:55;100842.16;;;11.17;62.13
49473;BME280;67434;50.956;6.918;2023-04-15T13:26:41;100851.28;;;11.11;62.10
49473;BME280;67434;50.956;6.918;2023-04-15T13:29:27;100848.25;;;11.02;62.45
49473;BME280;67434;50.956;6.918;2023-04-15T13:32:12;100865.50;;;10.96;62.90
49473;BME280;67434;50.956;6.918;2023-04-15T13:34:58;100860.38;;;11.00;62.94
49473;BME280;67434;50.956;6.918;2023-04-15T13:37:44;100861.81;;;11.07;63.00
49473;BME280;67434;50.956;6.918;2023-04-15T13:40:29;100874.13;;;11.20;62.51
49473;BME280;67434;50.956;6.918;2023-04-15T13:43:15;100873.00;;;11.16;62.78
49473;BME280;67434;50.956;6.918;2023-04-15T13:46:01;100875.53;;;11.01;62.96
49473;BME280;67434;50.956;6.918;2023-04-15T13:48:47;100874.16;;;10.98;63.21
49473;BME280;67434;50.956;6.918;2023-04-15T13:51:33;100881.50;;;11.03;63.52
49473;BME280;67434;50.956;6.918;2023-04-15T13:54:21;100884.38;;;10.91;63.58
49473;BME280;67434;50.956;6.918;2023-04-15T13:57:07;100899.22;;;10.88;63.38
49473;BME280;67434;50.956;6.918;2023-04-15T13:59:52;100891.88;;;10.84;63.72
49473;BME280;67434;50.956;6.918;2023-04-15T14:02:39;100903.31;;;10.91;63.46
49473;BME280;67434;50.956;6.918;2023-04-15T14:05:25;100896.16;;;11.07;63.09
49473;BME280;67434;50.956;6.918;2023-04-15T14:08:10;100906.31;;;11.21;62.52
49473;BME280;67434;50.956;6.918;2023-04-15T14:10:56;100908.03;;;11.33;61.75
49473;BME280;67434;50.956;6.918;2023-04-15T14:13:42;100900.69;;;11.28;61.84
49473;BME280;67434;50.956;6.918;2023-04-15T14:16:27;100908.16;;;11.48;61.70
49473;BME280;67434;50.956;6.918;2023-04-15T14:19:13;100908.84;;;11.65;61.23
49473;BME280;67434;50.956;6.918;2023-04-15T14:21:59;100910.19;;;11.63;61.17
49473;BME280;67434;50.956;6.918;2023-04-15T14:24:45;100918.59;;;11.66;61.13
49473;BME280;67434;50.956;6.918;2023-04-15T14:27:33;100927.50;;;11.62;61.71
49473;BME280;67434;50.956;6.918;2023-04-15T14:30:18;100912.44;;;11.76;61.63
49473;BME280;67434;50.956;6.918;2023-04-15T14:33:05;100914.38;;;11.48;62.65
49473;BME280;67434;50.956;6.918;2023-04-15T14:35:51;100920.75;;;11.32;63.28
49473;BME280;67434;50.956;6.918;2023-04-15T14:38:36;100920.94;;;11.20;64.06